Time;durP1;ratioP1;P1;durP2;ratioP2;P2;SDS_P1;SDS_P2;PMS_P1;PMS_P2;Temp;Humidity;BMP_temperature;BMP_pressure;BME280_temperature;BME280_humidity;BME280_pressure;Samples;Min_cycle;Max_cycle;Signal;HPM_P1;HPM_P2
2023/09/26 00:01:07;;;;;;;;;;;19.60;67.50;;;;;;5097353;28;19930;-70
2023/09/26 00:03:32;;;;;;;;;;;19.60;67.50;;;;;;5097228;28;19919;-71
2023/09/26 00:05:58;;;;;;;;;;;19.60;67.50;;;;;;5115535;28;19924;-70
2023/09/26 00:08:23;;;;;;;;;;;19.60;67.50;;;;;;5131668;27;19945;-70
2023/09/26 00:10:49;;;;;;;;;;;19.50;67.50;;;;;;5115476;28;19974;-71
2023/09/26 00:13:15;;;;;;;;;;;19.50;67.50;;;;;;5115490;28;19926;-70
2023/09/26 00:15:41;;;;;;;;;;;19.60;67.60;;;;;;5115486;28;20336;-70
2023/09/26 00:18:06;;;;;;;;;;;19.50;67.50;;;;;;5115222;28;19969;-70
2023/09/26 00:20:34;;;;;;;;;;;19.50;67.60;;;;;;5097065;28;19928;-70
2023/09/26 00:23:00;;;;;;;;;;;19.50;67.50;;;;;;5097155;28;19943;-70
2023/09/26 00:25:25;;;;;;;;;;;19.50;67.60;;;;;;5097242;28;19924;-70
2023/09/26 00:27:52;;;;;;;;;;;19.50;67.60;;;;;;5115111;28;19945;-70
2023/09/26 00:30:18;;;;;;;;;;;19.50;67.60;;;;;;5097184;28;19932;-70
2023/09/26 00:32:44;;;;;;;;;;;19.50;67.60;;;;;;5097138;28;19920;-70
2023/09/26 00:35:11;;;;;;;;;;;19.50;67.70;;;;;;5114866;28;20378;-71
2023/09/26 00:37:41;;;;;;;;;;;19.50;67.60;;;;;;5097046;28;19920;-70
2023/09/26 00:40:10;;;;;;;;;;;19.50;67.60;;;;;;5096382;28;19947;-71
2023/09/26 00:42:36;;;;;;;;;;;19.50;67.60;;;;;;5096532;28;19924;-70
2023/09/26 00:45:02;;;;;;;;;;;19.50;67.60;;;;;;5115171;28;19919;-71
2023/09/26 00:47:27;;;;;;;;;;;19.50;67.60;;;;;;5114770;28;19919;-70
2023/09/26 00:49:53;;;;;;;;;;;19.50;67.70;;;;;;5096618;28;19969;-70
2023/09/26 00:52:18;;;;;;;;;;;19.50;67.70;;;;;;5114937;28;20007;-70
2023/09/26 00:54:44;;;;;;;;;;;19.50;67.70;;;;;;5096342;28;19942;-70
2023/09/26 00:57:10;;;;;;;;;;;19.50;67.80;;;;;;5096653;28;20077;-72
2023/09/26 00:59:37;;;;;;;;;;;19.50;67.80;;;;;;5114369;28;19927;-71
2023/09/26 01:02:03;;;;;;;;;;;19.50;67.70;;;;;;5114518;28;19971;-71
2023/09/26 01:04:28;;;;;;;;;;;19.50;67.80;;;;;;5096043;28;19972;-71
2023/09/26 01:06:54;;;;;;;;;;;19.50;68.50;;;;;;5096078;28;19920;-71
2023/09/26 01:09:19;;;;;;;;;;;19.50;67.80;;;;;;5095967;28;19920;-70
2023/09/26 01:11:45;;;;;;;;;;;19.50;67.80;;;;;;5096337;28;19926;-70
2023/09/26 01:14:10;;;;;;;;;;;19.50;67.80;;;;;;5095983;28;19920;-70
2023/09/26 01:16:36;;;;;;;;;;;19.50;67.80;;;;;;5095835;28;19928;-70
2023/09/26 01:19:01;;;;;;;;;;;19.50;67.90;;;;;;5095835;28;19920;-70
2023/09/26 01:21:27;;;;;;;;;;;19.50;67.80;;;;;;5114011;28;19923;-71
2023/09/26 01:23:54;;;;;;;;;;;19.50;67.90;;;;;;5114267;28;20363;-72
2023/09/26 01:26:20;;;;;;;;;;;19.50;67.90;;;;;;5114050;28;19945;-72
2023/09/26 01:28:45;;;;;;;;;;;19.40;67.90;;;;;;5114024;28;19931;-70
2023/09/26 01:31:10;;;;;;;;;;;19.40;67.80;;;;;;5129782;27;20103;-72
2023/09/26 01:33:36;;;;;;;;;;;19.40;67.90;;;;;;5129780;27;19927;-70
2023/09/26 01:36:02;;;;;;;;;;;19.50;67.90;;;;;;5113598;28;20307;-70
2023/09/26 01:38:27;;;;;;;;;;;19.40;67.90;;;;;;5113623;28;20353;-71
2023/09/26 01:40:52;;;;;;;;;;;19.40;67.90;;;;;;5095392;28;20188;-70
2023/09/26 01:43:18;;;;;;;;;;;19.40;67.90;;;;;;5113671;28;19958;-72
2023/09/26 01:45:43;;;;;;;;;;;19.40;67.90;;;;;;5113576;28;19980;-72
2023/09/26 01:48:09;;;;;;;;;;;19.40;67.90;;;;;;5095542;28;20371;-70
2023/09/26 01:50:35;;;;;;;;;;;19.40;67.90;;;;;;5095140;28;20006;-71
2023/09/26 01:53:01;;;;;;;;;;;19.40;67.90;;;;;;5113484;28;19919;-70
2023/09/26 01:55:26;;;;;;;;;;;19.40;67.90;;;;;;5113492;28;19930;-72
2023/09/26 01:57:52;;;;;;;;;;;19.40;67.90;;;;;;5095358;28;19926;-70
2023/09/26 02:00:19;;;;;;;;;;;19.40;67.90;;;;;;5113300;28;19923;-70
2023/09/26 02:02:46;;;;;;;;;;;19.40;67.90;;;;;;5113308;28;19920;-70
2023/09/26 02:05:12;;;;;;;;;;;19.40;67.90;;;;;;5094788;28;19968;-70
2023/09/26 02:07:38;;;;;;;;;;;19.40;67.90;;;;;;5113198;28;19920;-72
2023/09/26 02:10:07;;;;;;;;;;;19.40;67.90;;;;;;5094652;28;20394;-71
2023/09/26 02:12:33;;;;;;;;;;;19.30;67.80;;;;;;5095238;28;19920;-70
2023/09/26 02:15:01;;;;;;;;;;;19.40;67.90;;;;;;5113360;28;19965;-70
2023/09/26 02:17:26;;;;;;;;;;;19.40;67.80;;;;;;5095113;28;19937;-70
2023/09/26 02:19:52;;;;;;;;;;;19.30;67.80;;;;;;5113057;28;20018;-70
2023/09/26 02:22:17;;;;;;;;;;;19.30;67.80;;;;;;5094662;28;20290;-72
2023/09/26 02:24:43;;;;;;;;;;;19.40;67.80;;;;;;5095132;28;19945;-70
2023/09/26 02:27:09;;;;;;;;;;;19.30;67.70;;;;;;5113151;28;19926;-71
2023/09/26 02:29:35;;;;;;;;;;;19.30;67.70;;;;;;5113005;28;19927;-72
2023/09/26 02:32:00;;;;;;;;;;;19.30;67.70;;;;;;5094609;28;19920;-71
2023/09/26 02:34:26;;;;;;;;;;;19.30;67.70;;;;;;5128754;27;20021;-70
2023/09/26 02:36:51;;;;;;;;;;;19.30;67.70;;;;;;5112831;28;19973;-70
2023/09/26 02:39:17;;;;;;;;;;;19.30;67.70;;;;;;5094514;28;20379;-71
2023/09/26 02:41:42;;;;;;;;;;;19.30;67.70;;;;;;5128733;27;19923;-70
2023/09/26 02:44:08;;;;;;;;;;;19.30;67.70;;;;;;5094794;28;19919;-71
2023/09/26 02:46:33;;;;;;;;;;;19.30;67.70;;;;;;5094554;28;19951;-71
2023/09/26 02:49:00;;;;;;;;;;;19.30;67.70;;;;;;5112733;28;19926;-70
2023/09/26 02:51:26;;;;;;;;;;;19.20;67.70;;;;;;5094858;28;20319;-70
2023/09/26 02:53:52;;;;;;;;;;;19.30;67.70;;;;;;5112603;28;20633;-70
2023/09/26 02:56:17;;;;;;;;;;;19.30;67.70;;;;;;5094777;28;20014;-70
2023/09/26 02:58:43;;;;;;;;;;;19.40;67.70;;;;;;5112615;28;19920;-71
2023/09/26 03:01:13;;;;;;;;;;;19.70;67.30;;;;;;5094461;28;20017;-71
2023/09/26 03:03:39;;;;;;;;;;;20.00;66.40;;;;;;5094687;28;19950;-71
2023/09/26 03:06:04;;;;;;;;;;;20.50;65.20;;;;;;5094268;28;20430;-70
2023/09/26 03:08:30;;;;;;;;;;;21.10;63.60;;;;;;5094479;28;19920;-70
2023/09/26 03:10:58;;;;;;;;;;;21.80;61.70;;;;;;5112532;28;20034;-70
2023/09/26 03:13:23;;;;;;;;;;;22.60;59.80;;;;;;5094554;28;20325;-70
2023/09/26 03:15:56;;;;;;;;;;;23.30;58.00;;;;;;5094589;28;19958;-72
2023/09/26 03:18:22;;;;;;;;;;;23.80;56.40;;;;;;5094121;28;19945;-72
2023/09/26 03:20:47;;;;;;;;;;;24.30;55.00;;;;;;5094239;28;19919;-71
2023/09/26 03:23:13;;;;;;;;;;;24.70;54.10;;;;;;5115566;28;19923;-70
2023/09/26 03:25:38;;;;;;;;;;;24.90;53.50;;;;;;5098448;28;19946;-71
2023/09/26 03:28:04;;;;;;;;;;;24.90;53.10;;;;;;5098116;28;19919;-71
2023/09/26 03:30:29;;;;;;;;;;;24.90;53.20;;;;;;5116371;28;19927;-72
2023/09/26 03:32:55;;;;;;;;;;;24.80;53.20;;;;;;5098336;28;19923;-72
2023/09/26 03:35:20;;;;;;;;;;;24.60;53.40;;;;;;5097837;28;19920;-70
2023/09/26 03:37:46;;;;;;;;;;;24.50;53.80;;;;;;5098135;28;19920;-71
2023/09/26 03:40:11;;;;;;;;;;;24.30;54.10;;;;;;5097500;28;19923;-71
2023/09/26 03:42:37;;;;;;;;;;;24.10;54.50;;;;;;5097839;28;19927;-70
2023/09/26 03:45:03;;;;;;;;;;;23.90;54.90;;;;;;5116038;28;19954;-70
2023/09/26 03:47:28;;;;;;;;;;;23.70;55.30;;;;;;5097912;28;20402;-70
2023/09/26 03:49:55;;;;;;;;;;;23.50;56.60;;;;;;5097931;28;19919;-70
2023/09/26 03:52:20;;;;;;;;;;;23.30;56.30;;;;;;5097575;28;19926;-71
2023/09/26 03:54:46;;;;;;;;;;;23.10;56.70;;;;;;5097870;28;19923;-70
2023/09/26 03:57:11;;;;;;;;;;;22.80;57.10;;;;;;5097915;28;19926;-71
2023/09/26 03:59:37;;;;;;;;;;;22.70;58.40;;;;;;5097377;28;19924;-70
2023/09/26 04:02:02;;;;;;;;;;;22.50;58.00;;;;;;5097721;28;19919;-70
2023/09/26 04:04:29;;;;;;;;;;;22.30;58.40;;;;;;5115662;28;19945;-71
2023/09/26 04:06:54;;;;;;;;;;;22.20;58.80;;;;;;5097464;28;20397;-71
2023/09/26 04:09:20;;;;;;;;;;;22.00;59.10;;;;;;5115461;28;19919;-72
2023/09/26 04:11:47;;;;;;;;;;;21.90;59.40;;;;;;5115672;28;19927;-70
2023/09/26 04:14:13;;;;;;;;;;;21.80;59.80;;;;;;5097578;28;19920;-70
2023/09/26 04:16:38;;;;;;;;;;;21.60;60.00;;;;;;5097034;28;19924;-70
2023/09/26 04:19:04;;;;;;;;;;;21.50;60.30;;;;;;5115429;28;19927;-71
2023/09/26 04:21:29;;;;;;;;;;;21.40;60.60;;;;;;5131480;27;19919;-71
2023/09/26 04:23:55;;;;;;;;;;;21.30;60.80;;;;;;5115259;28;19920;-71
2023/09/26 04:26:21;;;;;;;;;;;21.20;61.10;;;;;;5097235;28;19957;-71
2023/09/26 04:28:47;;;;;;;;;;;21.10;61.40;;;;;;5115232;28;20443;-70
2023/09/26 04:31:16;;;;;;;;;;;21.10;62.30;;;;;;5096872;28;19920;-70
2023/09/26 04:33:41;;;;;;;;;;;21.10;61.60;;;;;;5096734;28;19930;-71
2023/09/26 04:36:07;;;;;;;;;;;21.10;61.40;;;;;;5131182;27;20014;-71
2023/09/26 04:38:32;;;;;;;;;;;21.20;61.30;;;;;;5096752;28;19973;-71
2023/09/26 04:41:00;;;;;;;;;;;21.30;61.80;;;;;;5130760;27;19928;-70
2023/09/26 04:43:25;;;;;;;;;;;21.40;60.90;;;;;;5096983;28;20807;-70
2023/09/26 04:45:51;;;;;;;;;;;21.50;60.60;;;;;;5114909;28;19927;-70
2023/09/26 04:48:16;;;;;;;;;;;21.50;60.40;;;;;;5096804;28;20336;-71
2023/09/26 04:50:42;;;;;;;;;;;21.60;60.10;;;;;;5096832;28;19920;-71
2023/09/26 04:53:07;;;;;;;;;;;21.60;59.90;;;;;;5114738;28;20409;-70
2023/09/26 04:55:35;;;;;;;;;;;21.70;59.80;;;;;;5096688;28;20040;-70
2023/09/26 04:58:00;;;;;;;;;;;21.70;59.60;;;;;;5096292;28;19927;-70
2023/09/26 05:00:27;;;;;;;;;;;21.80;59.50;;;;;;5096230;28;19928;-70
2023/09/26 05:02:53;;;;;;;;;;;21.80;59.30;;;;;;5096217;28;19923;-70
2023/09/26 05:05:19;;;;;;;;;;;21.90;59.20;;;;;;5114372;28;19927;-71
2023/09/26 05:07:45;;;;;;;;;;;21.90;59.10;;;;;;5130384;27;19927;-70
2023/09/26 05:10:12;;;;;;;;;;;21.90;59.10;;;;;;5113110;28;20302;-69
2023/09/26 05:12:40;;;;;;;;;;;21.90;58.90;;;;;;5130364;27;19993;-73
2023/09/26 05:15:09;;;;;;;;;;;21.90;58.80;;;;;;5114446;28;19930;-71
2023/09/26 05:17:34;;;;;;;;;;;22.00;58.90;;;;;;5095818;28;19923;-71
2023/09/26 05:20:00;;;;;;;;;;;22.00;58.80;;;;;;5095780;28;19919;-71
2023/09/26 05:22:25;;;;;;;;;;;22.00;58.80;;;;;;5079137;28;19976;-70
2023/09/26 05:24:51;;;;;;;;;;;22.00;58.70;;;;;;5095586;28;19923;-71
2023/09/26 05:27:16;;;;;;;;;;;22.00;58.60;;;;;;5095778;28;19924;-71
2023/09/26 05:29:42;;;;;;;;;;;22.00;58.60;;;;;;5094687;28;20352;-71
2023/09/26 05:32:07;;;;;;;;;;;21.90;58.50;;;;;;5093316;28;19965;-71
2023/09/26 05:34:35;;;;;;;;;;;21.90;58.50;;;;;;5090338;28;19945;-71
2023/09/26 05:37:00;;;;;;;;;;;21.90;58.50;;;;;;5092632;28;19920;-69
2023/09/26 05:39:26;;;;;;;;;;;21.90;58.50;;;;;;5093388;28;19950;-70
2023/09/26 05:41:51;;;;;;;;;;;21.90;58.60;;;;;;5091894;28;19996;-69
2023/09/26 05:44:17;;;;;;;;;;;21.90;58.60;;;;;;5092214;28;20370;-69
2023/09/26 05:46:43;;;;;;;;;;;21.90;58.60;;;;;;5096633;27;20014;-68
2023/09/26 05:49:09;;;;;;;;;;;21.90;58.60;;;;;;5101435;28;19919;-68
2023/09/26 05:51:34;;;;;;;;;;;21.90;58.60;;;;;;5091538;28;19919;-69
2023/09/26 05:54:00;;;;;;;;;;;21.90;58.60;;;;;;5090228;28;20018;-69
2023/09/26 05:56:26;;;;;;;;;;;21.80;58.60;;;;;;5110516;28;19946;-69
2023/09/26 05:58:52;;;;;;;;;;;21.90;58.70;;;;;;5108707;28;19927;-68
2023/09/26 06:01:17;;;;;;;;;;;21.90;58.70;;;;;;5094583;28;19928;-68
2023/09/26 06:03:43;;;;;;;;;;;21.80;58.60;;;;;;5091273;28;19965;-68
2023/09/26 06:06:08;;;;;;;;;;;21.90;58.80;;;;;;5100420;28;19953;-69
2023/09/26 06:08:34;;;;;;;;;;;21.80;58.80;;;;;;5074873;28;20342;-69
2023/09/26 06:11:00;;;;;;;;;;;21.80;58.80;;;;;;5072618;28;20394;-70
2023/09/26 06:13:26;;;;;;;;;;;21.80;58.80;;;;;;5098849;28;19935;-69
2023/09/26 06:15:51;;;;;;;;;;;21.80;58.80;;;;;;5082662;28;19916;-69
2023/09/26 06:18:17;;;;;;;;;;;21.80;58.80;;;;;;5092073;28;19919;-69
2023/09/26 06:20:44;;;;;;;;;;;21.80;58.80;;;;;;5085613;28;20019;-68
2023/09/26 06:23:09;;;;;;;;;;;21.80;58.90;;;;;;5083021;28;19928;-74
2023/09/26 06:25:35;;;;;;;;;;;21.80;58.80;;;;;;5064318;28;20756;-70
2023/09/26 06:28:00;;;;;;;;;;;21.60;58.90;;;;;;5069054;28;20662;-70
2023/09/26 06:30:26;;;;;;;;;;;21.50;58.80;;;;;;5095192;27;19931;-69
2023/09/26 06:32:52;;;;;;;;;;;21.40;59.00;;;;;;5096127;27;20367;-68
2023/09/26 06:35:18;;;;;;;;;;;21.40;59.00;;;;;;5068439;28;20429;-70
2023/09/26 06:37:43;;;;;;;;;;;21.30;59.10;;;;;;5071608;28;19924;-73
2023/09/26 06:40:09;;;;;;;;;;;21.40;59.20;;;;;;5093268;28;20006;-71
2023/09/26 06:42:35;;;;;;;;;;;21.40;59.20;;;;;;5087691;28;20414;-68
2023/09/26 06:45:01;;;;;;;;;;;21.50;59.10;;;;;;5074744;28;19970;-69
2023/09/26 06:47:26;;;;;;;;;;;21.60;59.00;;;;;;5092576;28;20013;-69
2023/09/26 06:49:52;;;;;;;;;;;21.60;58.90;;;;;;5097722;28;19928;-68
2023/09/26 06:52:18;;;;;;;;;;;21.60;58.80;;;;;;5084013;28;19927;-73
2023/09/26 06:54:43;;;;;;;;;;;21.50;58.70;;;;;;5080541;28;19975;-69
2023/09/26 06:57:09;;;;;;;;;;;21.50;58.80;;;;;;5086213;27;20287;-73
2023/09/26 06:59:35;;;;;;;;;;;21.50;58.80;;;;;;5080850;27;20267;-68
2023/09/26 07:02:01;;;;;;;;;;;21.50;58.80;;;;;;5083640;28;20360;-68
2023/09/26 07:04:27;;;;;;;;;;;21.50;58.80;;;;;;5109053;27;20096;-68
2023/09/26 07:06:52;;;;;;;;;;;21.50;58.90;;;;;;5098992;27;19928;-69
2023/09/26 07:09:20;;;;;;;;;;;21.50;58.80;;;;;;5084908;27;19969;-68
2023/09/26 07:11:46;;;;;;;;;;;21.50;58.80;;;;;;5084027;28;20057;-68
2023/09/26 07:14:11;;;;;;;;;;;21.50;58.70;;;;;;5081166;28;19935;-68
2023/09/26 07:16:37;;;;;;;;;;;21.50;58.80;;;;;;5098120;27;19920;-67
2023/09/26 07:19:03;;;;;;;;;;;21.50;58.90;;;;;;5077437;28;20309;-69
2023/09/26 07:21:28;;;;;;;;;;;21.50;58.90;;;;;;5079696;27;20212;-75
2023/09/26 07:27:24;;;;;;;;;;;21.60;58.90;;;;;;5091036;27;19930;-67
2023/09/26 07:29:52;;;;;;;;;;;21.60;58.90;;;;;;5075083;27;20310;-73
2023/09/26 07:32:17;;;;;;;;;;;21.60;58.90;;;;;;5080005;28;20385;-75
2023/09/26 07:34:43;;;;;;;;;;;21.60;59.00;;;;;;5075617;28;19924;-75
2023/09/26 07:37:10;;;;;;;;;;;21.60;58.90;;;;;;5080298;28;19930;-70
2023/09/26 07:39:35;;;;;;;;;;;21.60;58.90;;;;;;5080816;28;19972;-73
2023/09/26 07:42:01;;;;;;;;;;;21.60;58.90;;;;;;5096418;28;20067;-69
2023/09/26 07:44:27;;;;;;;;;;;21.60;58.90;;;;;;5079100;28;19923;-69
2023/09/26 07:46:52;;;;;;;;;;;21.60;59.00;;;;;;5079771;28;20338;-73
2023/09/26 07:49:17;;;;;;;;;;;21.60;59.00;;;;;;5079851;28;19931;-76
2023/09/26 07:51:43;;;;;;;;;;;21.60;59.20;;;;;;5081121;28;19967;-69
2023/09/26 07:54:09;;;;;;;;;;;21.50;59.20;;;;;;5094209;27;19974;-68
2023/09/26 07:56:34;;;;;;;;;;;21.50;59.30;;;;;;5098724;27;20009;-73
2023/09/26 07:58:59;;;;;;;;;;;21.50;59.40;;;;;;5078214;27;20018;-70
2023/09/26 08:01:25;;;;;;;;;;;21.50;59.60;;;;;;5078797;27;19932;-75
2023/09/26 08:03:50;;;;;;;;;;;21.50;59.70;;;;;;5085386;27;20011;-70
2023/09/26 08:06:16;;;;;;;;;;;21.40;59.80;;;;;;5101845;27;19920;-73
2023/09/26 08:08:42;;;;;;;;;;;21.40;59.90;;;;;;5097629;27;19927;-74
2023/09/26 08:11:09;;;;;;;;;;;21.40;60.00;;;;;;5083960;27;19923;-68
2023/09/26 08:13:35;;;;;;;;;;;21.40;60.10;;;;;;5098340;27;20008;-67
2023/09/26 08:16:01;;;;;;;;;;;21.30;60.30;;;;;;5082144;28;20466;-68
2023/09/26 08:18:26;;;;;;;;;;;21.30;60.40;;;;;;5081938;27;19927;-75
2023/09/26 08:20:55;;;;;;;;;;;21.30;60.50;;;;;;5083296;27;20032;-69
2023/09/26 08:23:21;;;;;;;;;;;21.20;60.60;;;;;;5081199;28;19916;-69
2023/09/26 08:25:46;;;;;;;;;;;21.20;60.70;;;;;;5082307;27;19923;-72
2023/09/26 08:28:12;;;;;;;;;;;21.20;61.00;;;;;;5085633;27;20432;-69
2023/09/26 08:30:37;;;;;;;;;;;21.10;61.00;;;;;;5096749;27;19920;-69
2023/09/26 08:33:03;;;;;;;;;;;21.10;61.20;;;;;;5109078;27;19923;-75
2023/09/26 08:35:31;;;;;;;;;;;21.00;61.30;;;;;;5095173;27;19998;-74
2023/09/26 08:37:56;;;;;;;;;;;20.90;61.40;;;;;;5084634;27;20287;-68
2023/09/26 08:40:24;;;;;;;;;;;20.90;61.60;;;;;;5090386;27;20001;-69
2023/09/26 08:42:52;;;;;;;;;;;20.80;61.70;;;;;;5099834;27;19919;-68
2023/09/26 08:45:18;;;;;;;;;;;20.80;61.90;;;;;;5080691;28;19967;-69
2023/09/26 08:47:44;;;;;;;;;;;20.80;62.00;;;;;;5099796;27;19942;-74
2023/09/26 08:50:09;;;;;;;;;;;20.70;62.10;;;;;;5082390;27;20383;-69
2023/09/26 08:52:35;;;;;;;;;;;20.70;62.30;;;;;;5095244;27;20187;-75
2023/09/26 08:55:02;;;;;;;;;;;20.60;62.50;;;;;;5078009;28;19990;-74
2023/09/26 08:57:27;;;;;;;;;;;20.60;62.60;;;;;;5079176;28;19916;-75
2023/09/26 08:59:54;;;;;;;;;;;20.60;62.80;;;;;;5109162;27;19928;-71
2023/09/26 09:02:19;;;;;;;;;;;20.60;63.00;;;;;;5097171;27;19955;-70
2023/09/26 09:04:45;;;;;;;;;;;20.60;63.10;;;;;;5078191;27;19967;-70
2023/09/26 09:07:11;;;;;;;;;;;20.60;63.20;;;;;;5077063;28;20381;-71
2023/09/26 09:09:37;;;;;;;;;;;20.50;63.20;;;;;;5077758;27;20370;-71
2023/09/26 09:12:19;;;;;;;;;;;20.50;63.40;;;;;;5080615;27;19943;-71
2023/09/26 09:14:44;;;;;;;;;;;20.50;63.60;;;;;;5079666;27;19921;-71
2023/09/26 09:17:10;;;;;;;;;;;20.40;63.50;;;;;;5094391;27;19928;-69
2023/09/26 09:19:51;;;;;;;;;;;20.40;63.70;;;;;;5098920;27;20008;-69
2023/09/26 09:22:18;;;;;;;;;;;20.40;63.80;;;;;;5082088;27;19920;-73
2023/09/26 09:24:50;;;;;;;;;;;20.50;63.90;;;;;;5093435;27;20274;-73
2023/09/26 09:27:27;;;;;;;;;;;20.40;64.00;;;;;;5095039;27;19927;-69
2023/09/26 09:30:08;;;;;;;;;;;20.40;64.10;;;;;;5106962;27;19984;-69
2023/09/26 09:32:34;;;;;;;;;;;20.40;64.20;;;;;;5105491;27;20353;-69
2023/09/26 09:35:00;;;;;;;;;;;20.30;64.20;;;;;;5079357;27;19920;-73
2023/09/26 09:37:26;;;;;;;;;;;20.40;64.40;;;;;;5097499;27;19930;-69
2023/09/26 09:39:52;;;;;;;;;;;20.40;64.40;;;;;;5105789;27;19928;-69
2023/09/26 09:42:18;;;;;;;;;;;20.40;64.50;;;;;;5075593;28;19919;-71
2023/09/26 09:44:44;;;;;;;;;;;20.30;64.50;;;;;;5098356;27;19923;-68
2023/09/26 09:47:11;;;;;;;;;;;20.30;64.60;;;;;;5076702;28;19916;-71
2023/09/26 09:49:41;;;;;;;;;;;20.30;64.70;;;;;;5081300;28;19931;-70
2023/09/26 09:52:08;;;;;;;;;;;20.30;64.80;;;;;;5091192;27;19935;-70
2023/09/26 09:54:35;;;;;;;;;;;20.30;65.00;;;;;;5079971;27;19924;-78
2023/09/26 09:57:05;;;;;;;;;;;20.30;65.10;;;;;;5104720;27;20018;-78
2023/09/26 09:59:33;;;;;;;;;;;20.30;65.10;;;;;;5078068;28;19919;-76
2023/09/26 10:02:00;;;;;;;;;;;20.30;65.20;;;;;;5083452;27;19916;-71
2023/09/26 10:04:26;;;;;;;;;;;20.30;65.20;;;;;;5077719;28;20262;-69
2023/09/26 10:06:52;;;;;;;;;;;20.40;65.20;;;;;;5080164;27;19976;-69
2023/09/26 10:09:20;;;;;;;;;;;20.40;65.20;;;;;;5080138;28;19942;-69
2023/09/26 10:11:46;;;;;;;;;;;20.40;65.10;;;;;;5084222;28;19924;-75
2023/09/26 10:14:19;;;;;;;;;;;20.40;65.10;;;;;;5093853;27;19939;-69
2023/09/26 10:16:45;;;;;;;;;;;20.40;65.10;;;;;;5077769;28;19920;-73
2023/09/26 10:19:11;;;;;;;;;;;20.40;65.00;;;;;;5078415;28;19924;-69
2023/09/26 10:21:39;;;;;;;;;;;20.40;65.10;;;;;;5081464;27;19975;-75
2023/09/26 10:26:49;;;;;;;;;;;20.40;65.10;;;;;;5092491;27;20315;-68
2023/09/26 10:31:58;;;;;;;;;;;20.40;65.20;;;;;;5070947;27;19936;-68
2023/09/26 10:34:24;;;;;;;;;;;20.30;65.10;;;;;;5072720;28;19936;-68
2023/09/26 10:36:49;;;;;;;;;;;20.40;65.10;;;;;;5068269;28;19936;-68
2023/09/26 10:39:15;;;;;;;;;;;20.40;65.10;;;;;;5068174;28;20253;-68
2023/09/26 10:41:40;;;;;;;;;;;20.40;65.10;;;;;;5068692;28;19943;-68
2023/09/26 10:44:06;;;;;;;;;;;20.40;65.10;;;;;;5066856;28;19935;-69
2023/09/26 10:46:31;;;;;;;;;;;20.40;65.30;;;;;;5061622;28;20420;-68
2023/09/26 10:48:57;;;;;;;;;;;20.40;65.20;;;;;;5065699;28;19924;-68
2023/09/26 10:51:23;;;;;;;;;;;20.40;65.30;;;;;;5078136;28;20370;-76
2023/09/26 10:53:48;;;;;;;;;;;20.40;65.50;;;;;;5062579;28;20288;-68
2023/09/26 10:56:14;;;;;;;;;;;20.40;65.70;;;;;;5073235;28;19920;-69
2023/09/26 10:58:41;;;;;;;;;;;20.50;66.10;;;;;;5066220;28;19929;-69
2023/09/26 11:01:08;;;;;;;;;;;20.50;66.30;;;;;;5067127;28;19971;-73
2023/09/26 11:03:34;;;;;;;;;;;20.50;66.50;;;;;;5065374;28;19931;-69
2023/09/26 11:06:01;;;;;;;;;;;20.50;66.60;;;;;;5070735;28;19927;-68
2023/09/26 11:08:27;;;;;;;;;;;20.50;66.70;;;;;;5068218;28;19929;-68
2023/09/26 11:10:52;;;;;;;;;;;20.50;66.80;;;;;;5085398;28;19932;-71
2023/09/26 11:13:18;;;;;;;;;;;20.50;66.90;;;;;;5069688;28;20419;-69
2023/09/26 11:15:45;;;;;;;;;;;20.50;66.80;;;;;;5067935;28;19956;-73
2023/09/26 11:18:11;;;;;;;;;;;20.60;67.00;;;;;;5066645;28;20520;-75
2023/09/26 11:20:37;;;;;;;;;;;20.50;67.00;;;;;;5062425;28;19928;-74
2023/09/26 11:23:03;;;;;;;;;;;20.60;67.20;;;;;;5082374;28;19920;-69
2023/09/26 11:25:30;;;;;;;;;;;20.60;67.10;;;;;;5071238;28;20662;-68
2023/09/26 11:27:56;;;;;;;;;;;20.50;67.10;;;;;;5081717;28;20300;-69
2023/09/26 11:30:22;;;;;;;;;;;20.60;67.20;;;;;;5066001;28;19929;-70
2023/09/26 11:32:49;;;;;;;;;;;20.60;67.40;;;;;;5071321;28;19928;-70
2023/09/26 11:35:15;;;;;;;;;;;20.60;67.20;;;;;;5068085;28;19920;-69
2023/09/26 11:37:41;;;;;;;;;;;20.60;67.30;;;;;;5068764;28;19920;-69
2023/09/26 11:40:11;;;;;;;;;;;20.60;67.20;;;;;;5072292;28;20280;-68
2023/09/26 11:42:40;;;;;;;;;;;20.60;67.90;;;;;;5071781;28;19921;-69
2023/09/26 11:45:06;;;;;;;;;;;20.60;67.10;;;;;;5054658;28;19928;-73
2023/09/26 11:47:31;;;;;;;;;;;20.60;67.10;;;;;;5057855;28;19981;-68
2023/09/26 11:49:57;;;;;;;;;;;20.70;67.20;;;;;;5058932;28;20011;-68
2023/09/26 11:52:22;;;;;;;;;;;20.70;67.10;;;;;;5069674;28;19928;-68
2023/09/26 11:54:48;;;;;;;;;;;20.70;67.10;;;;;;5071116;28;20044;-69
2023/09/26 11:57:13;;;;;;;;;;;20.70;67.10;;;;;;5061905;28;19924;-68
2023/09/26 11:59:39;;;;;;;;;;;20.70;67.10;;;;;;5055058;28;20295;-68
2023/09/26 12:02:05;;;;;;;;;;;20.70;67.10;;;;;;5053628;28;19924;-68
2023/09/26 12:04:31;;;;;;;;;;;20.70;67.10;;;;;;5056013;28;19924;-68
2023/09/26 12:06:58;;;;;;;;;;;20.60;67.00;;;;;;5058131;28;19921;-68
2023/09/26 12:09:23;;;;;;;;;;;20.70;67.10;;;;;;5055869;28;19943;-68
2023/09/26 12:11:50;;;;;;;;;;;20.70;67.00;;;;;;5055822;28;19998;-69
2023/09/26 12:14:17;;;;;;;;;;;20.70;66.90;;;;;;5058951;28;20805;-68
2023/09/26 12:16:44;;;;;;;;;;;20.70;67.00;;;;;;5055210;28;19924;-69
2023/09/26 12:19:11;;;;;;;;;;;20.70;67.00;;;;;;5056622;28;19924;-68
2023/09/26 12:21:36;;;;;;;;;;;20.70;67.00;;;;;;5057545;28;19964;-68
2023/09/26 12:24:02;;;;;;;;;;;20.70;67.00;;;;;;5056800;28;20241;-68
2023/09/26 12:26:28;;;;;;;;;;;20.70;66.90;;;;;;5056574;28;19975;-68
2023/09/26 12:28:53;;;;;;;;;;;20.70;67.10;;;;;;5055387;28;19929;-68
2023/09/26 12:31:19;;;;;;;;;;;20.70;67.00;;;;;;5074607;28;19928;-68
2023/09/26 12:33:44;;;;;;;;;;;20.70;67.00;;;;;;5074965;28;19925;-70
2023/09/26 12:36:10;;;;;;;;;;;20.70;67.00;;;;;;5055473;28;20014;-69
2023/09/26 12:38:35;;;;;;;;;;;20.70;67.10;;;;;;5072374;28;19963;-73
2023/09/26 12:41:01;;;;;;;;;;;20.80;67.30;;;;;;5071724;28;19924;-69
2023/09/26 12:43:27;;;;;;;;;;;20.70;68.20;;;;;;5070269;28;19925;-68
2023/09/26 12:45:52;;;;;;;;;;;20.80;67.70;;;;;;5057785;28;20359;-67
2023/09/26 12:48:18;;;;;;;;;;;20.80;67.80;;;;;;5056276;28;19924;-69
2023/09/26 12:50:44;;;;;;;;;;;20.80;67.90;;;;;;5056325;28;19932;-68
2023/09/26 12:53:10;;;;;;;;;;;20.90;68.00;;;;;;5073990;28;19927;-78
2023/09/26 12:55:35;;;;;;;;;;;20.90;68.10;;;;;;5048271;28;20387;-68
2023/09/26 12:58:01;;;;;;;;;;;20.90;68.20;;;;;;5049305;28;19924;-70
2023/09/26 13:00:26;;;;;;;;;;;20.90;68.20;;;;;;5048443;28;19928;-67
2023/09/26 13:02:52;;;;;;;;;;;20.90;68.30;;;;;;5052684;28;19923;-67
2023/09/26 13:05:18;;;;;;;;;;;20.90;68.30;;;;;;5057554;28;20374;-68
2023/09/26 13:07:44;;;;;;;;;;;20.90;68.30;;;;;;5056421;28;19973;-66
2023/09/26 13:10:10;;;;;;;;;;;20.90;68.20;;;;;;5063275;28;19924;-67
2023/09/26 13:12:38;;;;;;;;;;;20.90;68.20;;;;;;5059380;28;20575;-66
2023/09/26 13:15:04;;;;;;;;;;;20.90;68.20;;;;;;5043217;28;19951;-72
2023/09/26 13:17:29;;;;;;;;;;;20.90;68.20;;;;;;5056919;28;19921;-66
2023/09/26 13:19:55;;;;;;;;;;;20.90;68.10;;;;;;5056899;28;19980;-66
2023/09/26 13:22:20;;;;;;;;;;;20.90;68.00;;;;;;5054737;28;19920;-67
2023/09/26 13:24:46;;;;;;;;;;;20.90;68.10;;;;;;5072195;28;19928;-67
2023/09/26 13:27:11;;;;;;;;;;;20.90;68.10;;;;;;5055131;28;19928;-67
2023/09/26 13:29:37;;;;;;;;;;;21.00;68.10;;;;;;5064669;28;19970;-67
2023/09/26 13:32:03;;;;;;;;;;;20.90;68.10;;;;;;5080336;28;19924;-67
2023/09/26 13:34:28;;;;;;;;;;;21.00;68.10;;;;;;5080703;28;19934;-67
2023/09/26 13:36:54;;;;;;;;;;;21.00;68.10;;;;;;5086127;28;20321;-67
2023/09/26 13:39:20;;;;;;;;;;;21.00;68.20;;;;;;5065017;28;20636;-68
2023/09/26 13:41:45;;;;;;;;;;;21.00;68.10;;;;;;5055019;28;19977;-67
2023/09/26 13:44:11;;;;;;;;;;;21.00;68.00;;;;;;5060839;28;20295;-68
2023/09/26 13:46:37;;;;;;;;;;;21.00;68.00;;;;;;5083750;28;19956;-68
2023/09/26 13:49:03;;;;;;;;;;;21.00;67.90;;;;;;5052654;28;20454;-68
2023/09/26 13:51:30;;;;;;;;;;;21.00;67.80;;;;;;5086501;28;19927;-67
2023/09/26 13:53:56;;;;;;;;;;;21.00;67.80;;;;;;5065418;28;19931;-68
2023/09/26 13:56:21;;;;;;;;;;;21.00;67.80;;;;;;5072305;28;19924;-67
2023/09/26 13:58:47;;;;;;;;;;;21.00;67.70;;;;;;5085658;28;19970;-68
2023/09/26 14:01:12;;;;;;;;;;;21.10;67.70;;;;;;5064516;28;19928;-67
2023/09/26 14:03:37;;;;;;;;;;;21.10;67.60;;;;;;5070581;28;20390;-67
2023/09/26 14:06:03;;;;;;;;;;;21.10;67.70;;;;;;5067005;28;19930;-74
2023/09/26 14:08:28;;;;;;;;;;;21.00;67.60;;;;;;5065864;28;19924;-67
2023/09/26 14:10:55;;;;;;;;;;;21.00;67.70;;;;;;5063031;28;20639;-66
2023/09/26 14:13:22;;;;;;;;;;;21.00;67.80;;;;;;5065632;28;19931;-67
2023/09/26 14:15:47;;;;;;;;;;;20.90;67.90;;;;;;5067498;28;20303;-67
2023/09/26 14:18:13;;;;;;;;;;;20.90;67.90;;;;;;5069969;28;19927;-67